Terminal Aerodrome Forecast
Issued by NWS Albany, NY

Home | Current Version | Previous Version | Text Only | Print | Product List | Glossary On
Versions: 1 2 3 4 5 6 7 8 9 10 11 12 13 14 15 16 17 18 19 20 21
241
FTUS41 KALY 262334
TAFPOU
TAF
KPOU 262334Z 2700/2724 32009KT P6SM VCSH BKN040
     FM270400 31006KT P6SM OVC030
     FM271000 VRB03KT P6SM SCT015 BKN030
     FM271400 34005KT P6SM BKN040=

USA.gov is the U.S. government's official web portal to all federal, state and local government web resources and services.